createdAt,value
2018-06-16T00:00:51.299Z,15.45
2018-06-16T00:03:20.971Z,15.30
2018-06-16T00:05:50.664Z,15.34
2018-06-16T00:08:20.552Z,15.20
2018-06-16T00:10:50.116Z,15.21
2018-06-16T00:13:19.815Z,15.25
2018-06-16T00:15:50.475Z,15.22
2018-06-16T00:18:20.186Z,15.10
2018-06-16T00:20:49.884Z,15.01
2018-06-16T00:23:19.541Z,15.00
2018-06-16T00:25:49.174Z,15.00
2018-06-16T00:28:18.806Z,14.97
2018-06-16T00:30:48.457Z,15.03
2018-06-16T00:33:18.204Z,15.05
2018-06-16T00:35:47.881Z,15.05
2018-06-16T00:38:17.554Z,14.93
2018-06-16T00:40:47.155Z,14.90
2018-06-16T00:43:16.741Z,14.82
2018-06-16T00:45:46.456Z,14.58
2018-06-16T00:48:16.174Z,14.61
2018-06-16T00:50:45.788Z,14.70
2018-06-16T00:53:15.538Z,14.79
2018-06-16T00:55:45.135Z,14.90
2018-06-16T00:58:14.836Z,14.63
2018-06-16T01:00:44.532Z,14.71
2018-06-16T01:03:14.175Z,14.75
2018-06-16T01:05:43.889Z,14.77
2018-06-16T01:08:13.555Z,14.74
2018-06-16T01:10:43.220Z,14.82
2018-06-16T01:13:12.917Z,14.82
2018-06-16T01:15:42.629Z,14.78
2018-06-16T01:18:12.288Z,14.77
2018-06-16T01:20:41.964Z,14.82
2018-06-16T01:23:11.668Z,14.83
2018-06-16T01:25:41.380Z,14.90
2018-06-16T01:28:11.041Z,14.93
2018-06-16T01:30:40.749Z,14.96
2018-06-16T01:33:10.435Z,14.95
2018-06-16T01:35:40.102Z,14.98
2018-06-16T01:38:09.777Z,15.00
2018-06-16T01:40:39.457Z,14.93
2018-06-16T01:43:09.114Z,14.88
2018-06-16T01:45:38.703Z,14.82
2018-06-16T01:48:08.385Z,14.78
2018-06-16T01:50:38.061Z,14.74
2018-06-16T01:53:07.698Z,14.68
2018-06-16T01:55:37.410Z,14.66
2018-06-16T01:58:07.091Z,14.71
2018-06-16T02:00:36.768Z,14.67
2018-06-16T02:03:06.414Z,14.61
2018-06-16T02:05:36.132Z,14.57
2018-06-16T02:08:05.784Z,14.61
2018-06-16T02:10:35.484Z,14.57
2018-06-16T02:13:05.133Z,14.53
2018-06-16T02:15:34.760Z,14.55
2018-06-16T02:18:04.468Z,14.60
2018-06-16T02:20:34.126Z,14.60
2018-06-16T02:23:03.833Z,14.62
2018-06-16T02:25:33.475Z,14.59
2018-06-16T02:28:03.201Z,14.53
2018-06-16T02:30:32.897Z,14.53
2018-06-16T02:33:09.303Z,14.50
2018-06-16T02:35:38.961Z,14.52
2018-06-16T02:38:08.611Z,14.56
2018-06-16T02:40:38.273Z,14.58
2018-06-16T02:43:07.917Z,14.66
2018-06-16T02:45:37.618Z,14.60
2018-06-16T02:48:07.313Z,14.61
2018-06-16T02:50:37.127Z,14.71
2018-06-16T02:53:06.673Z,14.70
2018-06-16T02:55:36.409Z,14.78
2018-06-16T02:58:06.104Z,14.71
2018-06-16T03:00:35.787Z,14.71
2018-06-16T03:03:05.455Z,14.63
2018-06-16T03:05:35.103Z,14.72
2018-06-16T03:08:04.899Z,14.76
2018-06-16T03:10:34.563Z,14.76
2018-06-16T03:13:04.247Z,14.78
2018-06-16T03:15:33.839Z,14.85
2018-06-16T03:18:03.471Z,14.89
2018-06-16T03:20:33.241Z,14.92
2018-06-16T03:23:02.858Z,14.81
2018-06-16T03:25:32.589Z,14.80
2018-06-16T03:28:02.352Z,14.79
2018-06-16T03:30:32.040Z,14.72
2018-06-16T03:33:01.720Z,14.66
2018-06-16T03:35:31.320Z,14.67
2018-06-16T03:38:00.973Z,14.73
2018-06-16T03:40:30.677Z,14.83
2018-06-16T03:43:00.309Z,14.90
2018-06-16T03:45:29.957Z,14.89
2018-06-16T03:47:59.608Z,14.86
2018-06-16T03:50:29.289Z,14.79
2018-06-16T03:52:58.924Z,14.79
2018-06-16T03:55:28.539Z,14.81
2018-06-16T03:57:58.241Z,14.79
2018-06-16T04:00:27.924Z,14.84
2018-06-16T04:02:57.574Z,14.77
2018-06-16T04:05:27.223Z,14.85
2018-06-16T04:07:56.832Z,14.92
2018-06-16T04:10:26.521Z,15.03
2018-06-16T04:12:56.170Z,15.12
2018-06-16T04:15:25.836Z,15.19
2018-06-16T04:17:55.451Z,15.18
2018-06-16T04:20:25.087Z,15.20
2018-06-16T04:22:54.748Z,15.21
2018-06-16T04:25:24.427Z,15.44
2018-06-16T04:27:54.025Z,15.45
2018-06-16T04:30:23.634Z,15.66
2018-06-16T04:32:53.246Z,15.65
2018-06-16T04:35:22.814Z,15.77
2018-06-16T04:37:52.461Z,15.84
2018-06-16T04:40:22.136Z,15.84
2018-06-16T04:42:51.833Z,16.03
2018-06-16T04:45:21.478Z,16.08
2018-06-16T04:47:51.143Z,16.08
2018-06-16T04:50:20.761Z,16.12
2018-06-16T04:52:50.403Z,16.11
2018-06-16T04:55:20.170Z,16.13
2018-06-16T04:57:49.807Z,16.11
2018-06-16T05:00:19.481Z,16.22
2018-06-16T05:02:52.040Z,16.45
2018-06-16T05:05:21.663Z,16.45
2018-06-16T05:07:51.303Z,16.67
2018-06-16T05:10:20.957Z,16.79
2018-06-16T05:12:50.690Z,16.54
2018-06-16T05:15:20.295Z,16.83
2018-06-16T05:17:49.958Z,17.01
2018-06-16T05:20:19.655Z,17.08
2018-06-16T05:22:49.305Z,17.23
2018-06-16T05:25:18.946Z,17.33
2018-06-16T05:27:48.609Z,17.23
2018-06-16T05:30:18.260Z,17.34
2018-06-16T05:32:47.919Z,17.35
2018-06-16T05:35:17.246Z,17.48
2018-06-16T05:37:46.879Z,17.62
2018-06-16T05:40:16.560Z,17.71
2018-06-16T05:42:46.291Z,17.89
2018-06-16T05:45:19.336Z,18.11
2018-06-16T05:47:49.002Z,18.21
2018-06-16T05:50:18.616Z,18.33
2018-06-16T05:52:48.330Z,18.55
2018-06-16T05:55:18.106Z,18.70
2018-06-16T05:57:47.833Z,18.86
2018-06-16T06:00:17.448Z,19.00
2018-06-16T06:02:47.036Z,19.04
2018-06-16T06:05:16.715Z,19.02
2018-06-16T06:07:47.227Z,19.27
2018-06-16T06:10:16.870Z,19.59
2018-06-16T06:12:47.827Z,19.91
2018-06-16T06:15:17.527Z,20.17
2018-06-16T06:17:48.352Z,20.38
2018-06-16T06:20:18.011Z,20.38
2018-06-16T06:22:47.671Z,20.12
2018-06-16T06:25:17.329Z,20.29
2018-06-16T06:27:47.002Z,20.56
2018-06-16T06:30:16.649Z,20.66
2018-06-16T06:32:46.373Z,20.83
2018-06-16T06:35:16.066Z,20.98
2018-06-16T06:37:45.769Z,21.11
2018-06-16T06:40:15.396Z,21.13
2018-06-16T06:42:45.123Z,21.34
2018-06-16T06:45:14.804Z,21.17
2018-06-16T06:47:44.584Z,21.36
2018-06-16T06:50:14.402Z,21.42
2018-06-16T06:52:44.115Z,21.08
2018-06-16T06:55:13.689Z,21.12
2018-06-16T06:57:43.368Z,21.32
2018-06-16T07:00:13.039Z,21.37
2018-06-16T07:02:42.756Z,21.53
2018-06-16T07:05:12.448Z,21.62
2018-06-16T07:07:42.071Z,21.57
2018-06-16T07:10:11.780Z,21.80
2018-06-16T07:12:41.469Z,21.86
2018-06-16T07:15:11.127Z,21.85
2018-06-16T07:17:40.903Z,21.52
2018-06-16T07:20:10.632Z,21.53
2018-06-16T07:22:40.316Z,21.46
2018-06-16T07:25:09.968Z,21.59
2018-06-16T07:27:39.698Z,21.80
2018-06-16T07:30:09.378Z,21.92
2018-06-16T07:32:39.063Z,21.64
2018-06-16T07:35:08.814Z,21.55
2018-06-16T07:37:38.486Z,21.61
2018-06-16T07:40:08.239Z,21.37
2018-06-16T07:42:37.845Z,21.07
2018-06-16T07:45:07.606Z,21.30
2018-06-16T07:47:37.249Z,21.50
2018-06-16T07:50:06.831Z,21.73
2018-06-16T07:52:36.522Z,22.01
2018-06-16T07:55:06.386Z,22.04
2018-06-16T08:00:05.344Z,22.16
2018-06-16T08:02:34.993Z,22.39
2018-06-16T08:05:04.600Z,22.35
2018-06-16T08:07:34.312Z,22.49
2018-06-16T08:10:04.052Z,22.47
2018-06-16T08:12:33.735Z,22.37
2018-06-16T08:15:03.091Z,22.72
2018-06-16T08:17:32.453Z,22.70
2018-06-16T08:20:01.769Z,22.89
2018-06-16T08:22:31.122Z,23.03
2018-06-16T08:25:00.439Z,23.33
2018-06-16T08:27:29.781Z,23.67
2018-06-16T08:29:59.124Z,24.13
2018-06-16T08:32:28.476Z,24.30
2018-06-16T08:34:57.889Z,24.35
2018-06-16T08:37:27.261Z,23.90
2018-06-16T08:39:56.756Z,23.82
2018-06-16T08:42:26.202Z,24.00
2018-06-16T08:44:55.521Z,23.96
2018-06-16T08:47:24.874Z,23.57
2018-06-16T08:49:54.218Z,23.81
2018-06-16T08:52:23.551Z,24.27
2018-06-16T08:54:52.976Z,24.56
2018-06-16T08:57:22.341Z,24.76
2018-06-16T08:59:51.669Z,25.24
2018-06-16T09:02:20.979Z,25.61
2018-06-16T09:04:50.455Z,25.78
2018-06-16T09:07:19.781Z,26.12
2018-06-16T09:09:49.112Z,25.97
2018-06-16T09:12:18.478Z,25.85
2018-06-16T09:14:47.784Z,25.82
2018-06-16T09:17:17.154Z,26.23
2018-06-16T09:19:46.561Z,26.40
2018-06-16T09:22:15.918Z,26.06
2018-06-16T09:24:45.241Z,26.41
2018-06-16T09:27:14.595Z,26.57
2018-06-16T09:29:44.266Z,26.79
2018-06-16T09:32:13.580Z,26.91
2018-06-16T09:34:42.936Z,26.40
2018-06-16T09:37:12.269Z,26.18
2018-06-16T09:39:41.581Z,26.54
2018-06-16T09:42:10.912Z,26.15
2018-06-16T09:44:40.284Z,26.12
2018-06-16T09:47:09.692Z,25.72
2018-06-16T09:49:39.024Z,25.68
2018-06-16T09:52:08.339Z,25.76
2018-06-16T09:54:37.679Z,25.82
2018-06-16T09:57:07.004Z,26.04
2018-06-16T09:59:36.330Z,26.13
2018-06-16T10:02:05.832Z,26.24
2018-06-16T10:04:35.187Z,26.09
2018-06-16T10:07:04.542Z,26.31
2018-06-16T10:09:33.879Z,26.50
2018-06-16T10:12:03.215Z,26.40
2018-06-16T10:14:32.537Z,26.30
2018-06-16T10:17:01.865Z,26.75
2018-06-16T10:19:31.196Z,27.05
2018-06-16T10:22:00.613Z,27.21
2018-06-16T10:24:29.967Z,26.77
2018-06-16T10:26:59.350Z,26.63
2018-06-16T10:29:28.660Z,27.03
2018-06-16T10:31:58.006Z,27.15
2018-06-16T10:34:27.343Z,26.85
2018-06-16T10:36:56.699Z,26.71
2018-06-16T10:39:26.012Z,26.66
2018-06-16T10:41:55.345Z,26.63
2018-06-16T10:44:24.656Z,26.32
2018-06-16T10:46:54.016Z,26.05
2018-06-16T10:49:23.363Z,25.92
2018-06-16T10:51:52.671Z,25.97
2018-06-16T10:54:21.984Z,25.81
2018-06-16T10:56:51.047Z,25.70
2018-06-16T10:59:20.384Z,25.61
2018-06-16T11:01:49.625Z,25.50
2018-06-16T11:04:18.961Z,25.50
2018-06-16T11:06:48.552Z,25.44
2018-06-16T11:09:17.973Z,25.54
2018-06-16T11:11:47.252Z,25.78
2018-06-16T11:14:16.590Z,25.89
2018-06-16T11:16:45.940Z,26.04
2018-06-16T11:19:18.985Z,26.43
2018-06-16T11:21:48.037Z,26.48
2018-06-16T11:24:17.371Z,26.67
2018-06-16T11:26:46.694Z,27.00
2018-06-16T11:29:16.031Z,26.97
2018-06-16T11:31:45.361Z,26.83
2018-06-16T11:34:14.696Z,26.61
2018-06-16T11:36:44.024Z,26.64
2018-06-16T11:39:13.365Z,26.82
2018-06-16T11:41:42.704Z,26.69
2018-06-16T11:44:12.036Z,26.59
2018-06-16T11:46:41.360Z,26.15
2018-06-16T11:49:10.702Z,26.36
2018-06-16T11:51:40.020Z,25.97
2018-06-16T11:54:09.364Z,25.82
2018-06-16T11:56:38.702Z,25.60
2018-06-16T11:59:08.016Z,25.64
2018-06-16T12:01:37.326Z,25.91
2018-06-16T12:04:06.696Z,25.90
2018-06-16T12:06:36.036Z,26.19
2018-06-16T12:09:09.795Z,26.30
2018-06-16T12:11:39.135Z,26.55
2018-06-16T12:14:09.261Z,26.77
2018-06-16T12:16:38.944Z,26.94
2018-06-16T12:19:08.596Z,27.44
2018-06-16T12:21:37.973Z,27.43
2018-06-16T12:24:07.592Z,26.74
2018-06-16T12:26:36.916Z,27.12
2018-06-16T12:29:06.260Z,27.20
2018-06-16T12:31:35.612Z,27.44
2018-06-16T12:34:04.940Z,27.18
2018-06-16T12:36:34.261Z,27.35
2018-06-16T12:39:03.896Z,27.52
2018-06-16T12:41:33.208Z,27.49
2018-06-16T12:44:02.555Z,27.40
2018-06-16T12:46:31.882Z,27.63
2018-06-16T12:49:01.200Z,27.85
2018-06-16T12:51:30.512Z,28.05
2018-06-16T12:53:59.848Z,27.76
2018-06-16T12:56:29.206Z,27.77
2018-06-16T12:58:58.564Z,27.74
2018-06-16T13:01:27.912Z,27.66
2018-06-16T13:03:57.270Z,27.35
2018-06-16T13:06:26.591Z,26.92
2018-06-16T13:08:55.924Z,26.91
2018-06-16T13:11:26.247Z,27.06
2018-06-16T13:13:56.177Z,26.54
2018-06-16T13:16:25.591Z,26.33
2018-06-16T13:18:55.257Z,26.35
2018-06-16T13:21:24.584Z,26.39
2018-06-16T13:23:53.988Z,26.77
2018-06-16T13:26:23.321Z,26.97
2018-06-16T13:28:52.644Z,26.55
2018-06-16T13:31:21.988Z,26.22
2018-06-16T13:33:51.325Z,26.14
2018-06-16T13:36:20.766Z,26.33
2018-06-16T13:38:50.220Z,26.12
2018-06-16T13:41:19.608Z,26.40
2018-06-16T13:43:48.953Z,26.35
2018-06-16T13:46:18.284Z,27.08
2018-06-16T13:48:47.624Z,27.72
2018-06-16T13:51:16.947Z,28.60
2018-06-16T13:53:46.256Z,28.56
2018-06-16T13:56:15.593Z,28.38
2018-06-16T13:58:44.948Z,28.52
2018-06-16T14:01:14.273Z,29.71
2018-06-16T14:03:43.695Z,30.76
2018-06-16T14:06:13.039Z,31.47
2018-06-16T14:08:42.398Z,31.63
2018-06-16T14:11:11.753Z,30.49
2018-06-16T14:13:41.139Z,28.97
2018-06-16T14:16:10.509Z,28.28
2018-06-16T14:18:39.884Z,27.57
2018-06-16T14:21:09.244Z,27.81
2018-06-16T14:23:38.734Z,27.91
2018-06-16T14:26:08.107Z,26.91
2018-06-16T14:28:37.468Z,27.17
2018-06-16T14:31:06.829Z,28.74
2018-06-16T14:33:36.181Z,30.00
2018-06-16T14:36:05.926Z,29.92
2018-06-16T14:38:35.291Z,29.13
2018-06-16T14:41:04.646Z,28.97
2018-06-16T14:43:34.028Z,28.15
2018-06-16T14:46:03.437Z,27.70
2018-06-16T14:48:33.830Z,27.64
2018-06-16T14:51:03.202Z,27.25
2018-06-16T14:53:32.566Z,27.26
2018-06-16T14:56:01.957Z,27.44
2018-06-16T14:58:31.277Z,27.97
2018-06-16T15:01:00.656Z,29.18
2018-06-16T15:03:30.038Z,29.62
2018-06-16T15:05:59.427Z,29.73
2018-06-16T15:08:28.797Z,29.95
2018-06-16T15:10:58.150Z,29.64
2018-06-16T15:13:27.521Z,29.77
2018-06-16T15:15:56.881Z,29.57
2018-06-16T15:18:26.227Z,29.89
2018-06-16T15:20:55.577Z,29.55
2018-06-16T15:23:24.969Z,30.46
2018-06-16T15:25:54.403Z,31.20
2018-06-16T15:28:23.751Z,31.27
2018-06-16T15:30:53.117Z,31.12
2018-06-16T15:33:22.499Z,31.01
2018-06-16T15:35:51.871Z,30.17
2018-06-16T15:38:21.216Z,29.24
2018-06-16T15:40:50.605Z,28.71
2018-06-16T15:43:19.921Z,28.12
2018-06-16T15:45:49.367Z,27.94
2018-06-16T15:48:18.708Z,27.84
2018-06-16T15:50:48.049Z,27.80
2018-06-16T15:53:17.388Z,27.76
2018-06-16T15:55:46.772Z,28.64
2018-06-16T15:58:17.208Z,30.92
2018-06-16T16:00:46.539Z,31.79
2018-06-16T16:03:15.891Z,31.44
2018-06-16T16:05:45.312Z,30.60
2018-06-16T16:08:14.577Z,30.53
2018-06-16T16:10:43.889Z,30.78
2018-06-16T16:13:13.270Z,30.44
2018-06-16T16:15:42.619Z,30.17
2018-06-16T16:18:12.017Z,29.40
2018-06-16T16:20:41.377Z,29.28
2018-06-16T16:23:10.762Z,30.05
2018-06-16T16:25:40.265Z,31.00
2018-06-16T16:28:09.573Z,30.74
2018-06-16T16:30:38.916Z,30.91
2018-06-16T16:33:08.253Z,30.55
2018-06-16T16:35:37.586Z,30.30
2018-06-16T16:38:06.997Z,32.36
2018-06-16T16:40:36.332Z,34.26
2018-06-16T16:43:05.687Z,35.62
2018-06-16T16:45:35.021Z,36.86
2018-06-16T16:48:04.438Z,36.19
2018-06-16T16:50:33.812Z,35.38
2018-06-16T16:53:03.225Z,34.47
2018-06-16T16:55:32.744Z,34.65
2018-06-16T16:58:02.089Z,34.03
2018-06-16T17:00:31.475Z,33.99
2018-06-16T17:03:00.828Z,34.75
2018-06-16T17:05:30.205Z,35.03
2018-06-16T17:07:59.595Z,33.97
2018-06-16T17:10:28.920Z,33.71
2018-06-16T17:12:58.393Z,32.93
2018-06-16T17:15:27.791Z,32.79
2018-06-16T17:17:57.160Z,33.06
2018-06-16T17:20:26.540Z,32.91
2018-06-16T17:22:55.928Z,32.85
2018-06-16T17:25:25.373Z,33.39
2018-06-16T17:27:54.696Z,34.99
2018-06-16T17:30:24.219Z,36.07
2018-06-16T17:32:53.584Z,36.87
2018-06-16T17:35:23.120Z,37.59
2018-06-16T17:37:53.088Z,37.16
2018-06-16T17:40:22.740Z,35.84
2018-06-16T17:42:52.267Z,35.16
2018-06-16T17:45:22.148Z,36.17
2018-06-16T17:47:51.509Z,37.04
2018-06-16T17:50:20.848Z,37.73
2018-06-16T17:52:50.232Z,37.65
2018-06-16T17:55:19.555Z,37.57
2018-06-16T17:57:48.880Z,36.76
2018-06-16T18:00:18.245Z,35.48
2018-06-16T18:02:47.673Z,34.19
2018-06-16T18:05:17.037Z,31.93
2018-06-16T18:07:46.375Z,31.43
2018-06-16T18:10:15.732Z,30.46
2018-06-16T18:12:45.239Z,29.80
2018-06-16T18:15:14.569Z,29.26
2018-06-16T18:17:43.928Z,28.79
2018-06-16T18:20:13.192Z,28.42
2018-06-16T18:22:42.556Z,28.20
2018-06-16T18:25:11.884Z,28.02
2018-06-16T18:27:47.797Z,27.98
2018-06-16T18:30:17.367Z,27.81
2018-06-16T18:32:46.671Z,27.36
2018-06-16T18:35:16.000Z,27.07
2018-06-16T18:37:45.372Z,26.75
2018-06-16T18:40:14.655Z,26.54
2018-06-16T18:42:43.973Z,26.22
2018-06-16T18:45:13.343Z,25.99
2018-06-16T18:47:42.660Z,25.41
2018-06-16T18:50:11.993Z,24.43
2018-06-16T18:52:41.305Z,23.91
2018-06-16T18:55:10.612Z,23.90
2018-06-16T18:57:39.953Z,23.68
2018-06-16T19:00:09.276Z,23.55
2018-06-16T19:02:38.580Z,23.42
2018-06-16T19:05:07.921Z,23.52
2018-06-16T19:07:37.243Z,23.45
2018-06-16T19:10:06.588Z,23.23
2018-06-16T19:12:35.917Z,23.03
2018-06-16T19:15:05.262Z,22.87
2018-06-16T19:17:34.593Z,22.73
2018-06-16T19:20:03.968Z,22.46
2018-06-16T19:22:33.331Z,22.22
2018-06-16T19:25:02.881Z,22.15
2018-06-16T19:27:32.208Z,22.01
2018-06-16T19:30:01.564Z,21.76
2018-06-16T19:32:30.912Z,21.53
2018-06-16T19:35:00.224Z,21.17
2018-06-16T19:37:29.560Z,21.15
2018-06-16T19:39:58.920Z,21.11
2018-06-16T19:42:28.241Z,21.06
2018-06-16T19:44:57.578Z,21.03
2018-06-16T19:47:27.115Z,21.02
2018-06-16T19:49:56.423Z,20.92
2018-06-16T19:52:25.752Z,20.81
2018-06-16T19:54:55.549Z,20.79
2018-06-16T19:57:24.875Z,20.81
2018-06-16T19:59:54.225Z,20.91
2018-06-16T20:02:27.143Z,20.82
2018-06-16T20:04:56.479Z,20.80
2018-06-16T20:07:25.832Z,20.82
2018-06-16T20:09:55.247Z,20.78
2018-06-16T20:12:24.637Z,20.75
2018-06-16T20:14:54.033Z,20.63
2018-06-16T20:17:23.407Z,20.61
2018-06-16T20:19:52.739Z,20.57
2018-06-16T20:22:22.126Z,20.60
2018-06-16T20:24:51.488Z,20.68
2018-06-16T20:27:20.816Z,20.67
2018-06-16T20:29:50.203Z,20.59
2018-06-16T20:32:19.528Z,20.53
2018-06-16T20:34:48.885Z,20.59
2018-06-16T20:37:18.304Z,20.66
2018-06-16T20:39:47.742Z,20.62
2018-06-16T20:42:17.036Z,20.58
2018-06-16T20:44:46.756Z,20.52
2018-06-16T20:47:16.144Z,20.39
2018-06-16T20:49:45.483Z,20.26
2018-06-16T20:52:14.852Z,20.34
2018-06-16T20:54:44.189Z,20.36
2018-06-16T20:57:13.810Z,20.37
2018-06-16T20:59:43.416Z,20.38
2018-06-16T21:02:13.110Z,20.40
2018-06-16T21:04:42.831Z,20.40
2018-06-16T21:07:12.514Z,20.25
2018-06-16T21:09:42.127Z,20.20
2018-06-16T21:12:11.822Z,20.15
2018-06-16T21:14:41.515Z,20.06
2018-06-16T21:17:11.217Z,20.00
2018-06-16T21:19:40.877Z,20.01
2018-06-16T21:22:10.542Z,19.95
2018-06-16T21:24:40.148Z,19.85
2018-06-16T21:27:09.855Z,19.88
2018-06-16T21:29:39.470Z,19.88
2018-06-16T21:32:09.160Z,19.85
2018-06-16T21:34:39.728Z,19.81
2018-06-16T21:37:09.359Z,19.90
2018-06-16T21:39:38.905Z,19.98
2018-06-16T21:42:08.855Z,20.05
2018-06-16T21:44:38.567Z,20.10
2018-06-16T21:47:08.247Z,20.13
2018-06-16T21:49:37.804Z,20.08
2018-06-16T21:52:07.740Z,20.16
2018-06-16T21:54:37.440Z,20.05
2018-06-16T21:57:07.208Z,20.00
2018-06-16T21:59:36.857Z,19.88
2018-06-16T22:02:06.846Z,19.68
2018-06-16T22:04:36.582Z,19.50
2018-06-16T22:07:05.932Z,19.06
2018-06-16T22:09:35.005Z,19.23
2018-06-16T22:12:04.332Z,19.38
2018-06-16T22:14:33.705Z,19.33
2018-06-16T22:17:03.124Z,19.42
2018-06-16T22:19:32.467Z,19.13
2018-06-16T22:22:01.816Z,18.97
2018-06-16T22:24:31.187Z,18.99
2018-06-16T22:27:00.529Z,19.00
2018-06-16T22:29:29.883Z,18.91
2018-06-16T22:31:59.192Z,18.93
2018-06-16T22:34:28.539Z,18.95
2018-06-16T22:36:57.871Z,19.03
2018-06-16T22:39:27.251Z,19.17
2018-06-16T22:41:56.605Z,19.39
2018-06-16T22:44:25.944Z,19.46
2018-06-16T22:46:55.260Z,19.50
2018-06-16T22:49:24.674Z,19.48
2018-06-16T22:51:53.996Z,19.50
2018-06-16T22:54:23.324Z,19.56
2018-06-16T22:56:52.669Z,19.58
2018-06-16T22:59:22.019Z,19.48
2018-06-16T23:01:51.342Z,19.41
2018-06-16T23:04:20.732Z,19.43
2018-06-16T23:06:50.144Z,19.42
2018-06-16T23:09:19.473Z,19.49
2018-06-16T23:11:48.879Z,19.43
2018-06-16T23:14:18.233Z,19.44
2018-06-16T23:16:47.558Z,19.53
2018-06-16T23:19:16.880Z,19.52
2018-06-16T23:21:46.212Z,19.52
2018-06-16T23:24:15.560Z,19.50
2018-06-16T23:26:44.876Z,19.42
2018-06-16T23:29:14.216Z,19.22
2018-06-16T23:31:43.565Z,19.18
2018-06-16T23:34:12.877Z,19.19
2018-06-16T23:36:42.581Z,19.16
2018-06-16T23:39:13.571Z,18.96
2018-06-16T23:41:43.239Z,18.82
2018-06-16T23:44:12.906Z,18.77
2018-06-16T23:46:42.606Z,18.83
2018-06-16T23:49:12.275Z,18.81
2018-06-16T23:51:41.917Z,18.75
2018-06-16T23:54:11.699Z,18.75
2018-06-16T23:56:41.431Z,18.77
2018-06-16T23:59:11.152Z,18.74
